Portada
METAR-TAF:

METAR-TAF

Aeroports :

Tortola, Illes Verges Britàniques

latitud: 18-27N, longitud: 064-32W, altitud: 4 m

Observació

L'informe es va fer fa 17 hores i 15 minuts, a les 18:00 UTC
Vent 10 kt del Est/Nord-Est
Temperatura 28°C
Humitat 70%
Pressió 1018 hPa
Visibilitat: 16.1 km
Escasses núvols a una alçada de 1900 ft

METAR: TUPJ 291800Z 06010KT 10SM FEW019 28/22 A3006 RMK Q1018 VIS16KM

Hora: 07:15 (11:15 UTC)

Pronòstic

L'informe es va fer fa 18 hores i 15 minuts, a les 17:00 UTC
Pronòstic vàlid del 29 a les 18 UTC al 30 a les 18 UTC
Vent 14 kt del Est/Nord-Est
Visibilitat 10 km o més
Núvols disperses a una alçada de 2200 ft
Probabilitat 30% :
Temporalment
l' 30 a les 04 UTC al 30 a les 12 UTC
xàfecs de pluja

TAF: TUPJ 291700Z 2918/3018 06014KT 9999 SCT022 PROB30 TEMPO 3004/3012 SHRA

Observacions i pronòstics meteorològics de més de 4000 aeroports (METAR i TAF).

Les estacions disponibles són els punts grocs i vermells al mapa.

Posi el ratolí al punt desitjat per veure el nom de l'estació.

Feu clic per veure les observacions i els pronòstics meteorològics.

Per canviar el mapa: feu clic els botons verds amb una creu de color negre per apropar; al botó verd amb un guió per allunyar la imatge; o en les fletxes verdes per a mapes adjacents.


METAR-TAF: